New Britain, Pennsylvania
Current Conditions -  °F | °C
As of 7:54 PM on Tuesday 21 Oct 2014 (Local Time) from KDYL Reporting Station
Broken Clouds Broken Clouds  
Wind Chill: 56°   Ceiling: 5000
Heat Index: 56°   Visibility: 10mi
Dew Point: 50°   Wind: 3mph
Humidity: 80%   Direction: 20°NNE
Pressure: 29.86"   Gusts: NA
Location:  40.3369°N, 75.1195°W
Report Text: KDYL 212354Z AUTO 02003KT 10SM BKN050 13/10 A2986 RMK AO2 SLP112 T01330100 10194 20133 53017
Loading
Personal Weather Stations






























Interactive Weather Map
Tropical Storm Tracking
New forecast layout! Learn more

10-Day Weather Forecast

Advertisements
Track Severe Weather on mobile